createdAt,value
2018-07-25T00:01:02.462Z,99.9
2018-07-25T00:02:09.682Z,99.2
2018-07-25T00:03:16.894Z,99.9
2018-07-25T00:04:23.837Z,99.9
2018-07-25T00:05:31.051Z,98.3
2018-07-25T00:06:38.266Z,99.9
2018-07-25T00:07:45.481Z,95.4
2018-07-25T00:08:52.440Z,99.7
2018-07-25T00:09:59.652Z,98
2018-07-25T00:11:06.864Z,99.9
2018-07-25T00:12:14.071Z,99.9
2018-07-25T00:13:21.293Z,99.9
2018-07-25T00:14:28.505Z,99.9
2018-07-25T00:15:35.712Z,99.9
2018-07-25T00:16:42.372Z,99.9
2018-07-25T00:17:49.794Z,99.9
2018-07-25T00:18:57.009Z,99.9
2018-07-25T00:20:04.229Z,99.9
2018-07-25T00:21:11.447Z,99.9
2018-07-25T00:22:18.650Z,99.9
2018-07-25T00:23:25.582Z,99.9
2018-07-25T00:24:32.811Z,99.9
2018-07-25T00:25:40.025Z,99.9
2018-07-25T00:26:47.242Z,99.9
2018-07-25T00:27:54.455Z,99.9
2018-07-25T00:29:01.391Z,99.9
2018-07-25T00:30:08.605Z,99.9
2018-07-25T00:31:15.812Z,99.9
2018-07-25T00:32:23.022Z,99.9
2018-07-25T00:33:30.237Z,99.9
2018-07-25T00:34:37.456Z,99.9
2018-07-25T00:35:44.663Z,99.9
2018-07-25T00:36:51.632Z,99.9
2018-07-25T00:37:58.569Z,99.9
2018-07-25T00:39:05.784Z,99.9
2018-07-25T00:40:13.001Z,99.9
2018-07-25T00:41:20.230Z,99.9
2018-07-25T00:42:27.168Z,99.9
2018-07-25T00:43:34.381Z,99.9
2018-07-25T00:44:41.593Z,99.9
2018-07-25T00:45:48.811Z,99.9
2018-07-25T00:46:55.688Z,99.9
2018-07-25T00:48:02.619Z,99.9
2018-07-25T00:49:09.833Z,99.9
2018-07-25T00:50:17.046Z,99.9
2018-07-25T00:51:24.258Z,99.9
2018-07-25T00:52:31.466Z,99.9
2018-07-25T00:53:38.675Z,99.9
2018-07-25T00:54:45.894Z,99.9
2018-07-25T00:55:53.110Z,99.9
2018-07-25T00:57:00.316Z,99.9
2018-07-25T00:58:07.532Z,99.9
2018-07-25T00:59:14.761Z,99.9
2018-07-25T01:00:21.691Z,99.9
2018-07-25T01:01:28.904Z,99.9
2018-07-25T01:02:36.114Z,99.9
2018-07-25T01:03:43.327Z,99.9
2018-07-25T01:04:50.542Z,99.9
2018-07-25T01:05:57.756Z,99.9
2018-07-25T01:07:04.695Z,99.9
2018-07-25T01:08:11.907Z,99.9
2018-07-25T01:09:19.121Z,99.9
2018-07-25T01:10:26.328Z,99.9
2018-07-25T01:11:33.539Z,99.9
2018-07-25T01:12:40.753Z,99.9
2018-07-25T01:13:47.969Z,99.9
2018-07-25T01:14:55.177Z,99.9
2018-07-25T01:16:02.391Z,99.9
2018-07-25T01:17:09.600Z,99.9
2018-07-25T01:18:16.820Z,99.9
2018-07-25T01:19:24.034Z,99.9
2018-07-25T01:20:31.248Z,99.9
2018-07-25T01:21:38.457Z,99.9
2018-07-25T01:22:45.675Z,99.9
2018-07-25T01:23:52.888Z,99.9
2018-07-25T01:25:00.100Z,99.9
2018-07-25T01:26:07.035Z,99.9
2018-07-25T01:27:14.246Z,99.9
2018-07-25T01:28:21.459Z,99.9
2018-07-25T01:29:28.675Z,99.9
2018-07-25T01:30:35.886Z,99.9
2018-07-25T01:31:43.096Z,99.9
2018-07-25T01:32:50.034Z,99.9
2018-07-25T01:33:56.971Z,99.9
2018-07-25T01:35:04.184Z,99.9
2018-07-25T01:36:11.401Z,99.9
2018-07-25T01:37:18.641Z,99.9
2018-07-25T01:38:25.842Z,99.5
2018-07-25T01:39:33.048Z,99.9
2018-07-25T01:40:40.273Z,98
2018-07-25T01:41:47.487Z,98
2018-07-25T01:42:54.710Z,96.7
2018-07-25T01:44:01.660Z,99.9
2018-07-25T01:45:08.867Z,99.6
2018-07-25T01:46:15.806Z,99.9
2018-07-25T01:47:23.035Z,98.6
2018-07-25T01:48:30.243Z,99.5
2018-07-25T01:49:37.463Z,99.9
2018-07-25T01:50:44.674Z,98.5
2018-07-25T01:51:51.890Z,99.9
2018-07-25T01:52:59.099Z,99.9
2018-07-25T01:54:06.314Z,99.9
2018-07-25T01:55:13.527Z,99.9
2018-07-25T01:56:20.735Z,99.9
2018-07-25T01:57:27.943Z,99.9
2018-07-25T01:58:34.881Z,99.9
2018-07-25T01:59:42.090Z,99.9
2018-07-25T02:00:49.344Z,99.9
2018-07-25T02:01:56.277Z,99.9
2018-07-25T02:03:03.490Z,99.9
2018-07-25T02:04:10.699Z,99.9
2018-07-25T02:05:17.909Z,99.9
2018-07-25T02:06:24.852Z,99.9
2018-07-25T02:07:32.065Z,99.9
2018-07-25T02:08:39.277Z,99.9
2018-07-25T02:09:46.492Z,99.9
2018-07-25T02:10:53.706Z,99.9
2018-07-25T02:12:00.915Z,99.9
2018-07-25T02:13:08.127Z,99.9
2018-07-25T02:14:15.344Z,99.9
2018-07-25T02:15:22.554Z,99.9
2018-07-25T02:16:29.807Z,99.9
2018-07-25T02:17:37.020Z,99.9
2018-07-25T02:18:44.230Z,99.9
2018-07-25T02:19:51.437Z,99.9
2018-07-25T02:20:58.649Z,99.9
2018-07-25T02:22:05.860Z,99.9
2018-07-25T02:23:13.069Z,99.9
2018-07-25T02:24:20.285Z,99.9
2018-07-25T02:25:27.492Z,99.9
2018-07-25T02:26:34.431Z,99.9
2018-07-25T02:27:41.649Z,99.9
2018-07-25T02:28:48.849Z,99.9
2018-07-25T02:29:56.066Z,99.9
2018-07-25T02:31:03.286Z,99.9
2018-07-25T02:32:10.218Z,99.9
2018-07-25T02:33:17.433Z,99.9
2018-07-25T02:34:24.641Z,99.9
2018-07-25T02:35:31.587Z,99.9
2018-07-25T02:36:38.786Z,99.9
2018-07-25T02:37:46.006Z,99.9
2018-07-25T02:38:52.943Z,99.9
2018-07-25T02:40:00.158Z,99.9
2018-07-25T02:41:07.376Z,99.9
2018-07-25T02:42:14.584Z,99.9
2018-07-25T02:43:21.792Z,99.9
2018-07-25T02:44:29.012Z,99.9
2018-07-25T02:45:36.241Z,99.9
2018-07-25T02:46:43.455Z,99.9
2018-07-25T02:47:50.679Z,99.9
2018-07-25T02:48:57.891Z,99.9
2018-07-25T02:50:05.108Z,99.9
2018-07-25T02:51:12.040Z,99.9
2018-07-25T02:52:19.258Z,99.9
2018-07-25T02:53:26.505Z,99.9
2018-07-25T02:54:33.708Z,99.9
2018-07-25T02:55:40.921Z,99.9
2018-07-25T02:56:48.192Z,99.9
2018-07-25T02:57:55.525Z,99.9
2018-07-25T02:59:02.464Z,99.9
2018-07-25T03:00:09.703Z,99.9
2018-07-25T03:01:16.906Z,99.9
2018-07-25T03:02:24.114Z,99.9
2018-07-25T03:03:31.329Z,99.9
2018-07-25T03:04:38.547Z,99.9
2018-07-25T03:05:45.758Z,99.9
2018-07-25T03:06:52.972Z,99.9
2018-07-25T03:08:00.183Z,99.9
2018-07-25T03:09:07.444Z,99.9
2018-07-25T03:10:14.936Z,99.9
2018-07-25T03:11:22.178Z,99.9
2018-07-25T03:12:29.377Z,99.9
2018-07-25T03:13:36.320Z,99.9
2018-07-25T03:14:43.530Z,99.9
2018-07-25T03:15:50.743Z,99.9
2018-07-25T03:16:57.957Z,99.9
2018-07-25T03:18:05.180Z,99.9
2018-07-25T03:19:12.392Z,99.9
2018-07-25T03:20:19.350Z,99.9
2018-07-25T03:21:26.553Z,99.9
2018-07-25T03:22:33.770Z,99.9
2018-07-25T03:23:40.980Z,99.9
2018-07-25T03:24:48.191Z,99.9
2018-07-25T03:25:55.403Z,99.9
2018-07-25T03:27:02.611Z,99.9
2018-07-25T03:28:09.824Z,99.9
2018-07-25T03:29:17.043Z,99.9
2018-07-25T03:30:24.257Z,99.9
2018-07-25T03:31:31.620Z,99.9
2018-07-25T03:32:39.238Z,99.9
2018-07-25T03:33:46.452Z,99.9
2018-07-25T03:34:53.661Z,99.9
2018-07-25T03:36:00.872Z,99.9
2018-07-25T03:37:08.088Z,99.9
2018-07-25T03:38:15.301Z,99.9
2018-07-25T03:39:22.519Z,99.9
2018-07-25T03:40:29.727Z,99.9
2018-07-25T03:41:36.940Z,99.9
2018-07-25T03:42:43.603Z,99.9
2018-07-25T03:43:50.810Z,99.9
2018-07-25T03:44:58.021Z,99.9
2018-07-25T03:46:05.236Z,99.9
2018-07-25T03:47:12.451Z,99.9
2018-07-25T03:48:19.661Z,99.9
2018-07-25T03:49:26.876Z,99.9
2018-07-25T03:50:34.094Z,99.9
2018-07-25T03:51:41.304Z,99.9
2018-07-25T03:52:48.511Z,99.9
2018-07-25T03:53:55.727Z,99.9
2018-07-25T03:55:02.940Z,99.9
2018-07-25T03:56:10.151Z,99.9
2018-07-25T03:57:17.363Z,99.9
2018-07-25T03:58:24.576Z,99.9
2018-07-25T03:59:31.789Z,99.9
2018-07-25T04:00:38.722Z,99.9
2018-07-25T04:01:45.936Z,99.9
2018-07-25T04:02:52.875Z,99.9
2018-07-25T04:04:00.093Z,99.9
2018-07-25T04:05:07.031Z,99.9
2018-07-25T04:06:14.241Z,99.9
2018-07-25T04:07:21.454Z,99.9
2018-07-25T04:08:28.664Z,99.9
2018-07-25T04:09:35.890Z,99.9
2018-07-25T04:10:43.105Z,99.9
2018-07-25T04:11:50.312Z,99.9
2018-07-25T04:12:57.527Z,99.9
2018-07-25T04:14:04.738Z,99.9
2018-07-25T04:15:11.955Z,99.9
2018-07-25T04:16:19.166Z,99.9
2018-07-25T04:17:26.380Z,99.9
2018-07-25T04:18:33.590Z,99.9
2018-07-25T04:19:40.810Z,99.9
2018-07-25T04:20:48.023Z,99.9
2018-07-25T04:21:55.240Z,99.9
2018-07-25T04:23:02.452Z,99.9
2018-07-25T04:24:09.665Z,99.9
2018-07-25T04:25:16.876Z,99.9
2018-07-25T04:26:24.089Z,99.9
2018-07-25T04:27:31.301Z,99.9
2018-07-25T04:28:38.512Z,99.9
2018-07-25T04:29:45.724Z,99.9
2018-07-25T04:30:52.930Z,99.9
2018-07-25T04:32:00.142Z,99.9
2018-07-25T04:33:07.361Z,99.9
2018-07-25T04:34:14.574Z,99.9
2018-07-25T04:35:21.790Z,99.9
2018-07-25T04:36:28.725Z,99.9
2018-07-25T04:37:35.943Z,99.9
2018-07-25T04:38:43.154Z,99.9
2018-07-25T04:39:50.368Z,99.9
2018-07-25T04:40:57.305Z,99.9
2018-07-25T04:42:04.519Z,99.9
2018-07-25T04:43:11.736Z,99.9
2018-07-25T04:44:18.940Z,99.9
2018-07-25T04:45:26.150Z,99.9
2018-07-25T04:46:33.476Z,99.9
2018-07-25T04:47:40.897Z,99.9
2018-07-25T04:48:48.116Z,99.9
2018-07-25T04:49:55.058Z,99.9
2018-07-25T04:51:02.302Z,99.9
2018-07-25T04:52:09.512Z,99.9
2018-07-25T04:53:16.721Z,99.9
2018-07-25T04:54:23.669Z,99.9
2018-07-25T04:55:30.909Z,99.9
2018-07-25T04:56:38.118Z,99.9
2018-07-25T04:57:45.341Z,99.9
2018-07-25T04:58:52.554Z,99.9
2018-07-25T04:59:59.766Z,99.9
2018-07-25T05:01:06.985Z,99.9
2018-07-25T05:02:14.194Z,99.9
2018-07-25T05:03:21.407Z,99.9
2018-07-25T05:04:28.621Z,99.9
2018-07-25T05:05:35.841Z,99.9
2018-07-25T05:06:43.052Z,99.9
2018-07-25T05:07:50.260Z,99.9
2018-07-25T05:08:57.202Z,99.9
2018-07-25T05:10:04.138Z,99.9
2018-07-25T05:11:11.346Z,99.9
2018-07-25T05:12:18.559Z,99.9
2018-07-25T05:13:25.492Z,99.9
2018-07-25T05:14:32.707Z,99.9
2018-07-25T05:15:39.920Z,99.9
2018-07-25T05:16:47.130Z,99.9
2018-07-25T05:17:54.431Z,99.9
2018-07-25T05:19:01.898Z,99.9
2018-07-25T05:20:09.109Z,99.9
2018-07-25T05:21:16.321Z,99.9
2018-07-25T05:22:23.546Z,99.9
2018-07-25T05:23:30.756Z,99.9
2018-07-25T05:24:37.968Z,99.9
2018-07-25T05:25:45.184Z,99.9
2018-07-25T05:26:52.115Z,99.9
2018-07-25T05:27:59.330Z,99.9
2018-07-25T05:29:06.540Z,99.9
2018-07-25T05:30:13.825Z,99.9
2018-07-25T05:31:21.229Z,99.9
2018-07-25T05:32:28.436Z,99.9
2018-07-25T05:33:35.645Z,99.9
2018-07-25T05:34:42.868Z,99.9
2018-07-25T05:35:50.075Z,99.9
2018-07-25T05:36:57.288Z,99.9
2018-07-25T05:38:04.300Z,99.9
2018-07-25T05:39:11.688Z,99.9
2018-07-25T05:40:18.899Z,99.9
2018-07-25T05:41:26.119Z,99.9
2018-07-25T05:42:33.335Z,99.9
2018-07-25T05:43:40.267Z,99.9
2018-07-25T05:44:47.536Z,99.9
2018-07-25T05:45:54.755Z,99.9
2018-07-25T05:47:01.685Z,99.9
2018-07-25T05:48:08.896Z,99.9
2018-07-25T05:49:16.124Z,99.9
2018-07-25T05:50:23.477Z,99.9
2018-07-25T05:51:30.698Z,99.9
2018-07-25T05:52:37.909Z,99.9
2018-07-25T05:53:44.850Z,99.9
2018-07-25T05:56:13.934Z,99.9
2018-07-25T05:57:21.146Z,99.9
2018-07-25T05:58:28.368Z,99.9
2018-07-25T05:59:35.570Z,99.9
2018-07-25T06:00:42.822Z,99.9
2018-07-25T06:01:50.040Z,99.9
2018-07-25T06:02:57.087Z,99.9
2018-07-25T06:04:04.725Z,99.9
2018-07-25T06:05:11.939Z,99.9
2018-07-25T06:06:18.879Z,99.9
2018-07-25T06:07:26.094Z,99.9
2018-07-25T06:08:33.377Z,99.9
2018-07-25T06:09:40.046Z,99.9
2018-07-25T06:10:47.261Z,99.9
2018-07-25T06:11:54.475Z,99.9
2018-07-25T06:13:01.691Z,99.9
2018-07-25T06:14:08.955Z,99.9
2018-07-25T06:15:16.256Z,99.9
2018-07-25T06:16:23.470Z,99.9
2018-07-25T06:17:30.686Z,99.9
2018-07-25T06:18:37.625Z,99.9
2018-07-25T06:19:44.848Z,99.9
2018-07-25T06:20:52.056Z,99.9
2018-07-25T06:21:59.004Z,99.9
2018-07-25T06:23:06.221Z,99.9
2018-07-25T06:24:13.445Z,97.8
2018-07-25T06:25:20.663Z,99.9
2018-07-25T06:26:27.877Z,97.1
2018-07-25T06:27:35.090Z,96.5
2018-07-25T06:28:42.301Z,95.2
2018-07-25T06:29:49.515Z,97
2018-07-25T06:30:56.455Z,94.4
2018-07-25T06:32:03.670Z,97.5
2018-07-25T06:33:10.619Z,91
2018-07-25T06:34:17.841Z,78.2
2018-07-25T06:35:25.051Z,81.4
2018-07-25T06:36:32.257Z,74.1
2018-07-25T06:37:39.479Z,80.7
2018-07-25T06:38:46.419Z,76.6
2018-07-25T06:39:53.355Z,82.3
2018-07-25T06:41:00.577Z,71.8
2018-07-25T06:42:07.786Z,66.8
2018-07-25T06:43:15.086Z,75.8
2018-07-25T06:44:22.448Z,76.6
2018-07-25T06:45:29.665Z,62.3
2018-07-25T06:46:36.916Z,59.6
2018-07-25T06:47:44.135Z,71.8
2018-07-25T06:48:51.069Z,79.3
2018-07-25T06:49:58.009Z,71.4
2018-07-25T06:51:04.955Z,70.7
2018-07-25T06:52:12.175Z,56.5
2018-07-25T06:53:19.389Z,58.9
2018-07-25T06:54:26.612Z,49.7
2018-07-25T06:55:33.829Z,49.1
2018-07-25T06:56:40.795Z,48.4
2018-07-25T06:57:48.015Z,52.7
2018-07-25T06:58:55.231Z,42.3
2018-07-25T07:00:02.503Z,42.1
2018-07-25T07:01:09.708Z,40.5
2018-07-25T07:02:16.921Z,29.5
2018-07-25T07:03:24.134Z,36.1
2018-07-25T07:04:31.353Z,34.5
2018-07-25T07:05:38.576Z,32.9
2018-07-25T07:06:45.893Z,39.4
2018-07-25T07:07:53.509Z,35.5
2018-07-25T07:09:00.727Z,32.1
2018-07-25T07:10:07.942Z,30.2
2018-07-25T07:11:15.172Z,34.3
2018-07-25T07:12:22.390Z,30.2
2018-07-25T07:13:29.604Z,23.6
2018-07-25T07:14:36.544Z,27.2
2018-07-25T07:15:43.761Z,28.3
2018-07-25T07:16:50.976Z,29.1
2018-07-25T07:17:58.191Z,23.2
2018-07-25T07:19:05.404Z,26.7
2018-07-25T07:20:12.347Z,25.3
2018-07-25T07:21:19.561Z,19.3
2018-07-25T07:22:26.781Z,23.3
2018-07-25T07:23:34.008Z,15.6
2018-07-25T07:24:41.225Z,17.1
2018-07-25T07:25:48.508Z,16
2018-07-25T07:26:55.817Z,15.4
2018-07-25T07:28:03.049Z,17.1
2018-07-25T07:29:10.265Z,17.9
2018-07-25T07:30:17.488Z,22.1
2018-07-25T07:31:24.471Z,16
2018-07-25T07:32:31.847Z,14.3
2018-07-25T07:33:39.076Z,13
2018-07-25T07:34:46.297Z,13.6
2018-07-25T07:35:53.514Z,9.7
2018-07-25T07:37:00.734Z,16.4
2018-07-25T07:38:07.953Z,14.8
2018-07-25T07:39:14.898Z,7.6
2018-07-25T07:40:22.121Z,15.4
2018-07-25T07:41:29.065Z,9.5
2018-07-25T07:42:36.304Z,7.8
2018-07-25T07:43:43.525Z,14.5
2018-07-25T07:44:50.743Z,7.9
2018-07-25T07:45:57.962Z,13.5
2018-07-25T07:47:05.198Z,12.2
2018-07-25T07:48:11.871Z,10.3
2018-07-25T07:49:19.093Z,13.6
2018-07-25T07:50:26.311Z,14.7
2018-07-25T07:51:33.535Z,15.3
2018-07-25T07:52:40.747Z,10.1
2018-07-25T07:53:47.981Z,7.2
2018-07-25T07:54:54.920Z,6.7
2018-07-25T07:56:02.146Z,10.7
2018-07-25T07:57:09.091Z,4.9
2018-07-25T07:58:16.299Z,9.5
2018-07-25T07:59:23.537Z,9.2
2018-07-25T08:00:30.926Z,6.1
2018-07-25T08:01:38.174Z,4.9
2018-07-25T08:02:45.401Z,5.2
2018-07-25T08:03:52.625Z,12.6
2018-07-25T08:04:59.903Z,9.3
2018-07-25T08:06:07.585Z,4
2018-07-25T08:07:14.804Z,6.6
2018-07-25T08:08:22.021Z,2.1
2018-07-25T08:09:29.244Z,3.9
2018-07-25T08:10:36.488Z,4.4
2018-07-25T08:11:43.857Z,6.7
2018-07-25T08:12:51.073Z,14
2018-07-25T08:13:58.294Z,9.7
2018-07-25T08:15:05.541Z,4.6
2018-07-25T08:16:12.762Z,3.6
2018-07-25T08:17:19.984Z,4.5
2018-07-25T08:18:27.203Z,1
2018-07-25T08:19:34.423Z,2.7
2018-07-25T08:20:41.658Z,1.2
2018-07-25T08:21:48.972Z,1.5
2018-07-25T08:22:56.195Z,1.7
2018-07-25T08:24:03.414Z,2.3
2018-07-25T08:25:10.363Z,1
2018-07-25T08:26:17.578Z,9.4
2018-07-25T08:27:24.793Z,6.3
2018-07-25T08:28:32.020Z,1
2018-07-25T08:29:39.234Z,2.7
2018-07-25T08:30:46.457Z,1
2018-07-25T08:31:53.673Z,1
2018-07-25T08:33:00.890Z,2.3
2018-07-25T08:34:08.119Z,1
2018-07-25T08:35:15.331Z,4.6
2018-07-25T08:36:22.552Z,1
2018-07-25T08:37:29.768Z,1
2018-07-25T08:39:58.813Z,1
2018-07-25T08:41:06.049Z,1
2018-07-25T08:42:13.392Z,1
2018-07-25T08:43:20.616Z,1
2018-07-25T08:44:27.843Z,1
2018-07-25T08:45:34.787Z,1
2018-07-25T08:46:42.047Z,5.1
2018-07-25T08:47:49.321Z,1
2018-07-25T08:48:56.543Z,1
2018-07-25T08:50:03.758Z,1
2018-07-25T08:51:10.986Z,1
2018-07-25T08:52:17.928Z,1
2018-07-25T08:53:25.146Z,1
2018-07-25T08:54:32.363Z,1
2018-07-25T08:55:39.587Z,1
2018-07-25T08:56:46.811Z,1
2018-07-25T08:57:54.067Z,1
2018-07-25T08:59:01.371Z,1
2018-07-25T09:00:08.594Z,1
2018-07-25T09:01:15.541Z,1
2018-07-25T09:02:22.763Z,1
2018-07-25T09:03:29.983Z,1
2018-07-25T09:04:37.195Z,1
2018-07-25T09:05:44.414Z,1
2018-07-25T09:06:51.640Z,1
2018-07-25T09:07:58.855Z,1
2018-07-25T09:09:06.078Z,1
2018-07-25T09:10:13.298Z,1
2018-07-25T09:11:20.516Z,1
2018-07-25T09:12:27.459Z,1
2018-07-25T09:13:34.400Z,1
2018-07-25T09:14:41.338Z,1
2018-07-25T09:15:48.558Z,1
2018-07-25T09:16:55.859Z,1
2018-07-25T09:18:03.357Z,1
2018-07-25T09:19:10.577Z,1
2018-07-25T09:20:17.801Z,1
2018-07-25T09:21:25.036Z,1
2018-07-25T09:22:31.703Z,1
2018-07-25T09:23:38.657Z,1
2018-07-25T09:24:45.879Z,1
2018-07-25T09:25:53.105Z,1
2018-07-25T09:27:00.323Z,1
2018-07-25T09:28:09.191Z,1
2018-07-25T09:29:17.774Z,1
2018-07-25T09:30:26.060Z,1
2018-07-25T09:31:33.284Z,1
2018-07-25T09:32:40.511Z,1
2018-07-25T09:33:47.745Z,1
2018-07-25T09:34:55.447Z,1
2018-07-25T09:36:02.682Z,1
2018-07-25T09:37:09.920Z,1
2018-07-25T09:38:17.153Z,1
2018-07-25T09:39:24.375Z,1
2018-07-25T09:40:31.648Z,1
2018-07-25T09:41:38.938Z,1
2018-07-25T09:42:46.228Z,1
2018-07-25T09:43:53.457Z,1
2018-07-25T09:45:00.709Z,1
2018-07-25T09:46:08.020Z,1
2018-07-25T09:47:15.353Z,1
2018-07-25T09:48:22.677Z,1
2018-07-25T09:49:29.961Z,1
2018-07-25T09:50:37.222Z,1
2018-07-25T09:51:44.224Z,1
2018-07-25T09:52:51.523Z,1
2018-07-25T09:53:59.131Z,1
2018-07-25T09:55:06.074Z,1
2018-07-25T09:56:13.359Z,1
2018-07-25T09:57:20.594Z,1
2018-07-25T09:58:27.836Z,1
2018-07-25T09:59:35.092Z,1
2018-07-25T10:00:42.124Z,1
2018-07-25T10:01:49.703Z,1
2018-07-25T10:02:58.302Z,1
2018-07-25T10:04:07.064Z,1
2018-07-25T10:05:15.896Z,1
2018-07-25T10:06:24.218Z,1
2018-07-25T10:07:33.451Z,1
2018-07-25T10:08:42.749Z,1
2018-07-25T10:09:51.648Z,1
2018-07-25T10:11:01.081Z,1
2018-07-25T10:12:09.621Z,1
2018-07-25T10:13:19.106Z,1
2018-07-25T10:14:28.652Z,1
2018-07-25T10:15:37.951Z,1
2018-07-25T10:16:47.184Z,1
2018-07-25T10:17:56.321Z,1
2018-07-25T10:19:05.693Z,1
2018-07-25T10:20:14.272Z,1
2018-07-25T10:21:22.823Z,1
2018-07-25T10:22:32.331Z,1
2018-07-25T10:23:41.631Z,1
2018-07-25T10:26:12.777Z,1
2018-07-25T10:27:20.061Z,1
2018-07-25T10:28:27.835Z,1
2018-07-25T10:29:35.078Z,1
2018-07-25T10:30:42.329Z,1
2018-07-25T10:31:50.008Z,1
2018-07-25T10:32:58.613Z,1
2018-07-25T10:34:08.072Z,1
2018-07-25T10:35:16.419Z,1
2018-07-25T10:36:25.346Z,1
2018-07-25T10:37:34.567Z,1
2018-07-25T10:38:43.704Z,1
2018-07-25T10:39:52.205Z,1
2018-07-25T10:41:01.385Z,1
2018-07-25T10:42:10.957Z,1
2018-07-25T10:43:19.952Z,1
2018-07-25T10:44:28.977Z,1
2018-07-25T10:45:38.513Z,1
2018-07-25T10:46:47.984Z,1
2018-07-25T10:47:56.933Z,1
2018-07-25T10:49:06.129Z,1
2018-07-25T10:50:14.549Z,1
2018-07-25T10:51:23.786Z,1
2018-07-25T10:52:32.866Z,1
2018-07-25T10:53:42.003Z,1
2018-07-25T10:54:51.272Z,1
2018-07-25T10:56:00.682Z,1
2018-07-25T10:57:10.463Z,1
2018-07-25T10:58:19.580Z,1
2018-07-25T10:59:28.852Z,1
2018-07-25T11:00:37.422Z,1
2018-07-25T11:01:46.440Z,1
2018-07-25T11:02:56.436Z,1
2018-07-25T11:04:05.499Z,1
2018-07-25T11:05:14.845Z,1
2018-07-25T11:06:23.908Z,1
2018-07-25T11:07:33.054Z,1
2018-07-25T11:08:42.410Z,1
2018-07-25T11:09:50.967Z,1
2018-07-25T11:11:00.445Z,1
2018-07-25T11:12:07.656Z,1
2018-07-25T11:13:14.896Z,1
2018-07-25T11:14:22.470Z,1
2018-07-25T11:15:30.947Z,1
2018-07-25T11:16:39.518Z,1
2018-07-25T11:17:48.496Z,1
2018-07-25T11:18:57.310Z,1
2018-07-25T11:20:06.283Z,1
2018-07-25T11:21:15.311Z,1
2018-07-25T11:22:23.709Z,1
2018-07-25T11:23:32.742Z,1
2018-07-25T11:24:42.020Z,1
2018-07-25T11:25:51.153Z,1
2018-07-25T11:26:59.541Z,1
2018-07-25T11:28:08.007Z,1
2018-07-25T11:29:17.337Z,1
2018-07-25T11:31:31.210Z,1
2018-07-25T11:32:38.496Z,1
2018-07-25T11:33:46.111Z,1
2018-07-25T11:34:53.344Z,1
2018-07-25T11:36:00.294Z,1
2018-07-25T11:37:07.523Z,1
2018-07-25T11:38:14.800Z,1
2018-07-25T11:39:22.403Z,1
2018-07-25T11:40:29.347Z,1
2018-07-25T11:41:36.569Z,1
2018-07-25T11:42:43.797Z,1
2018-07-25T11:43:51.161Z,1
2018-07-25T11:44:58.391Z,1
2018-07-25T11:46:05.618Z,1
2018-07-25T11:47:12.841Z,1
2018-07-25T11:48:19.790Z,1
2018-07-25T11:49:27.014Z,1
2018-07-25T11:50:34.242Z,1
2018-07-25T11:51:41.466Z,1
2018-07-25T11:52:48.686Z,1
2018-07-25T11:53:55.909Z,1
2018-07-25T11:55:03.132Z,1
2018-07-25T11:56:10.410Z,1
2018-07-25T11:57:17.641Z,1
2018-07-25T11:58:24.868Z,1
2018-07-25T11:59:31.821Z,1
2018-07-25T12:00:39.049Z,1
2018-07-25T12:01:46.282Z,1
2018-07-25T12:02:53.766Z,1
2018-07-25T12:04:00.986Z,1
2018-07-25T12:05:08.209Z,1
2018-07-25T12:06:15.432Z,1
2018-07-25T12:07:22.707Z,1
2018-07-25T12:08:30.144Z,1
2018-07-25T12:09:37.370Z,1
2018-07-25T12:10:44.344Z,1
2018-07-25T12:11:51.315Z,1
2018-07-25T12:12:58.591Z,1
2018-07-25T12:14:06.110Z,1
2018-07-25T12:15:14.323Z,1
2018-07-25T12:16:22.776Z,1
2018-07-25T12:17:31.671Z,1
2018-07-25T12:18:40.017Z,1
2018-07-25T12:19:49.162Z,1
2018-07-25T12:20:58.161Z,1
2018-07-25T12:22:07.413Z,1
2018-07-25T12:23:16.663Z,1
2018-07-25T12:24:25.881Z,1
2018-07-25T12:25:35.143Z,1
2018-07-25T12:26:44.637Z,1
2018-07-25T12:27:54.189Z,1
2018-07-25T12:29:03.564Z,1
2018-07-25T12:30:12.794Z,1
2018-07-25T12:31:22.243Z,1
2018-07-25T12:32:31.568Z,1
2018-07-25T12:33:40.459Z,1
2018-07-25T12:34:48.890Z,1
2018-07-25T12:35:56.161Z,1
2018-07-25T12:37:03.395Z,1
2018-07-25T12:38:10.362Z,1
2018-07-25T12:39:17.603Z,1
2018-07-25T12:40:24.836Z,1
2018-07-25T12:41:32.063Z,1
2018-07-25T12:42:39.480Z,1
2018-07-25T12:43:46.718Z,1
2018-07-25T12:44:53.971Z,1
2018-07-25T12:46:01.199Z,1
2018-07-25T12:47:08.433Z,1
2018-07-25T12:48:15.679Z,1
2018-07-25T12:49:23.102Z,1
2018-07-25T12:50:30.373Z,1
2018-07-25T12:51:37.370Z,1
2018-07-25T12:52:44.617Z,1
2018-07-25T12:53:51.915Z,1
2018-07-25T12:54:59.627Z,1
2018-07-25T12:56:06.879Z,1
2018-07-25T12:57:13.844Z,1
2018-07-25T12:58:20.799Z,1
2018-07-25T12:59:28.062Z,1
2018-07-25T13:00:35.308Z,1
2018-07-25T13:01:42.555Z,1
2018-07-25T13:02:49.283Z,1
2018-07-25T13:03:57.010Z,1
2018-07-25T13:05:04.240Z,1
2018-07-25T13:06:11.930Z,1
2018-07-25T13:07:20.001Z,1
2018-07-25T13:08:28.857Z,1
2018-07-25T13:09:38.140Z,1
2018-07-25T13:10:46.342Z,1
2018-07-25T13:11:55.711Z,1
2018-07-25T13:13:04.600Z,1
2018-07-25T13:14:13.817Z,1
2018-07-25T13:15:22.369Z,1
2018-07-25T13:16:31.843Z,1
2018-07-25T13:17:41.158Z,1
2018-07-25T13:18:50.516Z,1
2018-07-25T13:19:59.843Z,1
2018-07-25T13:21:09.134Z,1
2018-07-25T13:22:17.582Z,1
2018-07-25T13:23:25.515Z,1
2018-07-25T13:24:35.140Z,1
2018-07-25T13:25:44.491Z,1
2018-07-25T13:26:53.912Z,1
2018-07-25T13:28:03.204Z,1
2018-07-25T13:29:11.899Z,1
2018-07-25T13:30:21.513Z,1
2018-07-25T13:31:30.832Z,1
2018-07-25T13:32:40.218Z,1
2018-07-25T13:33:49.510Z,1
2018-07-25T13:34:59.081Z,1
2018-07-25T13:36:08.503Z,1
2018-07-25T13:37:17.989Z,1
2018-07-25T13:38:27.397Z,1
2018-07-25T13:39:37.127Z,1
2018-07-25T13:40:46.658Z,1
2018-07-25T13:41:56.103Z,1
2018-07-25T13:43:05.490Z,1
2018-07-25T13:44:14.745Z,1
2018-07-25T13:45:24.361Z,1
2018-07-25T13:46:33.880Z,1
2018-07-25T13:47:43.197Z,1
2018-07-25T13:48:52.253Z,1
2018-07-25T13:50:01.414Z,1
2018-07-25T13:51:10.726Z,1
2018-07-25T13:52:20.174Z,1
2018-07-25T13:53:29.506Z,1
2018-07-25T13:54:37.306Z,1
2018-07-25T13:55:46.120Z,1
2018-07-25T13:56:54.467Z,1
2018-07-25T13:58:01.705Z,1
2018-07-25T13:59:08.952Z,1
2018-07-25T14:00:16.199Z,1
2018-07-25T14:01:23.450Z,1
2018-07-25T14:02:30.683Z,1
2018-07-25T14:03:37.931Z,1
2018-07-25T14:04:45.177Z,1
2018-07-25T14:05:52.412Z,1
2018-07-25T14:06:59.658Z,1
2018-07-25T14:08:06.901Z,1
2018-07-25T14:09:13.870Z,1
2018-07-25T14:10:20.825Z,1
2018-07-25T14:11:28.092Z,1
2018-07-25T14:12:35.727Z,1
2018-07-25T14:13:42.978Z,1
2018-07-25T14:14:49.934Z,1
2018-07-25T14:15:57.184Z,1
2018-07-25T14:17:04.446Z,1
2018-07-25T14:18:11.758Z,1
2018-07-25T14:19:19.517Z,1
2018-07-25T14:20:26.743Z,1
2018-07-25T14:21:33.997Z,1
2018-07-25T14:22:41.222Z,1
2018-07-25T14:23:48.597Z,1
2018-07-25T14:24:56.808Z,1
2018-07-25T14:27:40.697Z,1
2018-07-25T14:28:48.039Z,1
2018-07-25T14:29:55.795Z,1
2018-07-25T14:31:03.056Z,1
2018-07-25T14:32:10.281Z,1
2018-07-25T14:33:17.246Z,1
2018-07-25T14:34:24.513Z,1
2018-07-25T14:35:31.802Z,1
2018-07-25T14:36:39.092Z,1
2018-07-25T14:37:46.332Z,1
2018-07-25T14:38:53.014Z,1
2018-07-25T14:40:00.433Z,1
2018-07-25T14:41:07.817Z,1
2018-07-25T14:42:15.043Z,1
2018-07-25T14:43:22.378Z,1
2018-07-25T14:44:30.221Z,1
2018-07-25T14:45:37.906Z,1
2018-07-25T14:46:45.787Z,1
2018-07-25T14:47:55.123Z,1
2018-07-25T14:49:03.837Z,1
2018-07-25T14:50:12.848Z,1
2018-07-25T14:51:22.266Z,1
2018-07-25T14:53:40.012Z,1
2018-07-25T14:54:48.594Z,1
2018-07-25T14:55:58.008Z,1
2018-07-25T14:57:07.658Z,1
2018-07-25T14:58:16.300Z,1
2018-07-25T14:59:25.220Z,1
2018-07-25T15:00:34.055Z,1
2018-07-25T15:01:41.741Z,1
2018-07-25T15:02:49.054Z,1
2018-07-25T15:03:56.870Z,1
2018-07-25T15:05:04.105Z,1
2018-07-25T15:06:11.396Z,1
2018-07-25T15:07:18.639Z,1
2018-07-25T15:08:25.884Z,1
2018-07-25T15:09:33.137Z,1
2018-07-25T15:10:40.372Z,1
2018-07-25T15:11:47.633Z,1
2018-07-25T15:12:54.940Z,1
2018-07-25T15:14:02.067Z,1
2018-07-25T15:15:09.555Z,1
2018-07-25T15:16:16.535Z,1
2018-07-25T15:17:23.802Z,1
2018-07-25T15:18:31.043Z,1
2018-07-25T15:19:38.281Z,1
2018-07-25T15:20:45.527Z,1
2018-07-25T15:21:52.817Z,1
2018-07-25T15:23:00.080Z,1
2018-07-25T15:24:07.335Z,1
2018-07-25T15:25:14.613Z,1
2018-07-25T15:26:21.851Z,1
2018-07-25T15:27:29.134Z,1
2018-07-25T15:28:36.431Z,1
2018-07-25T15:29:43.745Z,1
2018-07-25T15:30:52.005Z,1
2018-07-25T15:33:21.586Z,1
2018-07-25T15:34:28.871Z,1
2018-07-25T15:35:36.174Z,1
2018-07-25T15:36:43.708Z,1
2018-07-25T15:37:52.804Z,1
2018-07-25T15:39:00.987Z,1
2018-07-25T15:40:09.452Z,1
2018-07-25T15:41:18.804Z,1
2018-07-25T15:42:27.872Z,1
2018-07-25T15:43:36.998Z,1
2018-07-25T15:44:46.044Z,1
2018-07-25T15:45:53.717Z,1
2018-07-25T15:47:00.986Z,1
2018-07-25T15:48:08.588Z,1
2018-07-25T15:49:15.848Z,1
2018-07-25T15:50:23.135Z,1
2018-07-25T15:51:30.093Z,1
2018-07-25T15:52:37.360Z,1
2018-07-25T15:53:44.608Z,1